sensor_id;sensor_type;location;lat;lon;timestamp;P1;durP1;ratioP1;P2;durP2;ratioP2
64401;SDS011;50724;42.376;23.768;2023-08-21T00:00:08;10.17;;;5.27;;
64401;SDS011;50724;42.376;23.768;2023-08-21T00:03:10;7.85;;;5.72;;
64401;SDS011;50724;42.376;23.768;2023-08-21T00:06:10;8.05;;;5.75;;
64401;SDS011;50724;42.376;23.768;2023-08-21T00:09:11;10.48;;;5.85;;
64401;SDS011;50724;42.376;23.768;2023-08-21T00:12:11;9.82;;;5.85;;
64401;SDS011;50724;42.376;23.768;2023-08-21T00:15:12;10.60;;;5.80;;
64401;SDS011;50724;42.376;23.768;2023-08-21T00:18:21;8.77;;;5.72;;
64401;SDS011;50724;42.376;23.768;2023-08-21T00:21:22;10.57;;;5.85;;
64401;SDS011;50724;42.376;23.768;2023-08-21T00:24:22;8.25;;;5.00;;
64401;SDS011;50724;42.376;23.768;2023-08-21T00:27:23;9.00;;;5.85;;
64401;SDS011;50724;42.376;23.768;2023-08-21T00:30:23;12.27;;;5.27;;
64401;SDS011;50724;42.376;23.768;2023-08-21T00:33:24;9.15;;;5.95;;
64401;SDS011;50724;42.376;23.768;2023-08-21T00:36:24;9.13;;;5.70;;
64401;SDS011;50724;42.376;23.768;2023-08-21T00:39:25;9.10;;;6.17;;
64401;SDS011;50724;42.376;23.768;2023-08-21T00:42:25;10.98;;;6.32;;
64401;SDS011;50724;42.376;23.768;2023-08-21T00:45:35;8.10;;;5.70;;
64401;SDS011;50724;42.376;23.768;2023-08-21T00:48:36;10.52;;;5.53;;
64401;SDS011;50724;42.376;23.768;2023-08-21T00:51:37;8.85;;;6.20;;
64401;SDS011;50724;42.376;23.768;2023-08-21T00:54:37;8.68;;;5.45;;
64401;SDS011;50724;42.376;23.768;2023-08-21T00:57:38;9.07;;;6.05;;
64401;SDS011;50724;42.376;23.768;2023-08-21T01:00:40;9.45;;;5.30;;
64401;SDS011;50724;42.376;23.768;2023-08-21T01:03:41;7.43;;;5.00;;
64401;SDS011;50724;42.376;23.768;2023-08-21T01:06:42;7.45;;;5.15;;
64401;SDS011;50724;42.376;23.768;2023-08-21T01:09:49;10.60;;;6.03;;
64401;SDS011;50724;42.376;23.768;2023-08-21T01:16:08;11.02;;;4.95;;
64401;SDS011;50724;42.376;23.768;2023-08-21T01:19:26;7.32;;;5.35;;
64401;SDS011;50724;42.376;23.768;2023-08-21T01:22:36;7.78;;;4.88;;
64401;SDS011;50724;42.376;23.768;2023-08-21T01:25:38;10.95;;;5.65;;
64401;SDS011;50724;42.376;23.768;2023-08-21T01:28:39;7.30;;;5.28;;
64401;SDS011;50724;42.376;23.768;2023-08-21T01:31:39;7.68;;;5.50;;
64401;SDS011;50724;42.376;23.768;2023-08-21T01:34:46;8.35;;;5.70;;
64401;SDS011;50724;42.376;23.768;2023-08-21T01:37:47;9.27;;;5.60;;
64401;SDS011;50724;42.376;23.768;2023-08-21T01:40:48;8.50;;;5.75;;
64401;SDS011;50724;42.376;23.768;2023-08-21T01:43:48;8.40;;;5.43;;
64401;SDS011;50724;42.376;23.768;2023-08-21T01:46:49;7.63;;;5.07;;
64401;SDS011;50724;42.376;23.768;2023-08-21T01:49:49;9.13;;;5.60;;
64401;SDS011;50724;42.376;23.768;2023-08-21T01:52:52;11.02;;;5.88;;
64401;SDS011;50724;42.376;23.768;2023-08-21T01:55:52;10.33;;;6.50;;
64401;SDS011;50724;42.376;23.768;2023-08-21T01:58:53;8.57;;;5.37;;
64401;SDS011;50724;42.376;23.768;2023-08-21T02:01:53;12.20;;;6.23;;
64401;SDS011;50724;42.376;23.768;2023-08-21T02:04:53;8.68;;;5.03;;
64401;SDS011;50724;42.376;23.768;2023-08-21T02:07:54;10.13;;;5.73;;
64401;SDS011;50724;42.376;23.768;2023-08-21T02:10:54;7.38;;;4.80;;
64401;SDS011;50724;42.376;23.768;2023-08-21T02:13:55;12.20;;;5.60;;
64401;SDS011;50724;42.376;23.768;2023-08-21T02:16:55;10.30;;;5.53;;
64401;SDS011;50724;42.376;23.768;2023-08-21T02:19:55;11.70;;;5.60;;
64401;SDS011;50724;42.376;23.768;2023-08-21T02:22:56;9.70;;;5.63;;
64401;SDS011;50724;42.376;23.768;2023-08-21T02:25:56;7.80;;;5.20;;
64401;SDS011;50724;42.376;23.768;2023-08-21T02:28:57;10.50;;;5.80;;
64401;SDS011;50724;42.376;23.768;2023-08-21T02:31:57;8.13;;;5.38;;
64401;SDS011;50724;42.376;23.768;2023-08-21T02:34:59;9.10;;;4.85;;
64401;SDS011;50724;42.376;23.768;2023-08-21T02:37:59;11.68;;;5.65;;
64401;SDS011;50724;42.376;23.768;2023-08-21T02:41:00;8.07;;;4.72;;
64401;SDS011;50724;42.376;23.768;2023-08-21T02:44:00;8.30;;;4.57;;
64401;SDS011;50724;42.376;23.768;2023-08-21T02:47:00;7.93;;;5.13;;
64401;SDS011;50724;42.376;23.768;2023-08-21T02:50:01;7.63;;;4.47;;
64401;SDS011;50724;42.376;23.768;2023-08-21T02:53:03;9.63;;;5.07;;
64401;SDS011;50724;42.376;23.768;2023-08-21T02:56:04;10.13;;;5.05;;
64401;SDS011;50724;42.376;23.768;2023-08-21T02:59:04;10.27;;;5.20;;
64401;SDS011;50724;42.376;23.768;2023-08-21T03:02:04;9.23;;;5.10;;
64401;SDS011;50724;42.376;23.768;2023-08-21T03:05:05;8.43;;;5.27;;
64401;SDS011;50724;42.376;23.768;2023-08-21T03:08:07;9.10;;;5.60;;
64401;SDS011;50724;42.376;23.768;2023-08-21T03:11:07;9.18;;;5.50;;
64401;SDS011;50724;42.376;23.768;2023-08-21T03:14:07;9.03;;;5.87;;
64401;SDS011;50724;42.376;23.768;2023-08-21T03:17:08;8.10;;;5.40;;
64401;SDS011;50724;42.376;23.768;2023-08-21T03:20:08;8.73;;;5.53;;
64401;SDS011;50724;42.376;23.768;2023-08-21T03:23:09;7.53;;;5.55;;
64401;SDS011;50724;42.376;23.768;2023-08-21T03:26:10;9.13;;;5.23;;
64401;SDS011;50724;42.376;23.768;2023-08-21T03:29:10;10.30;;;5.45;;
64401;SDS011;50724;42.376;23.768;2023-08-21T03:32:10;9.60;;;4.63;;
64401;SDS011;50724;42.376;23.768;2023-08-21T03:35:11;7.63;;;5.10;;
64401;SDS011;50724;42.376;23.768;2023-08-21T03:38:11;7.07;;;4.63;;
64401;SDS011;50724;42.376;23.768;2023-08-21T03:41:12;7.70;;;4.63;;
64401;SDS011;50724;42.376;23.768;2023-08-21T03:44:12;10.27;;;4.90;;
64401;SDS011;50724;42.376;23.768;2023-08-21T03:47:13;7.27;;;4.80;;
64401;SDS011;50724;42.376;23.768;2023-08-21T03:50:13;9.55;;;4.82;;
64401;SDS011;50724;42.376;23.768;2023-08-21T03:53:14;8.68;;;5.30;;
64401;SDS011;50724;42.376;23.768;2023-08-21T03:56:14;10.50;;;4.90;;
64401;SDS011;50724;42.376;23.768;2023-08-21T03:59:15;8.35;;;4.90;;
64401;SDS011;50724;42.376;23.768;2023-08-21T04:02:15;9.57;;;4.83;;
64401;SDS011;50724;42.376;23.768;2023-08-21T04:05:16;10.63;;;5.53;;
64401;SDS011;50724;42.376;23.768;2023-08-21T04:08:16;7.43;;;4.77;;
64401;SDS011;50724;42.376;23.768;2023-08-21T04:11:16;12.10;;;5.30;;
64401;SDS011;50724;42.376;23.768;2023-08-21T04:14:17;9.00;;;4.85;;
64401;SDS011;50724;42.376;23.768;2023-08-21T04:17:21;7.33;;;5.20;;
64401;SDS011;50724;42.376;23.768;2023-08-21T04:20:22;9.52;;;5.32;;
64401;SDS011;50724;42.376;23.768;2023-08-21T04:23:23;9.57;;;5.32;;
64401;SDS011;50724;42.376;23.768;2023-08-21T04:26:23;9.50;;;5.85;;
64401;SDS011;50724;42.376;23.768;2023-08-21T04:29:23;8.37;;;4.97;;
64401;SDS011;50724;42.376;23.768;2023-08-21T04:32:24;9.07;;;4.88;;
64401;SDS011;50724;42.376;23.768;2023-08-21T04:35:24;7.13;;;4.13;;
64401;SDS011;50724;42.376;23.768;2023-08-21T04:38:25;7.45;;;4.68;;
64401;SDS011;50724;42.376;23.768;2023-08-21T04:41:25;8.35;;;4.47;;
64401;SDS011;50724;42.376;23.768;2023-08-21T04:44:26;9.47;;;4.97;;
64401;SDS011;50724;42.376;23.768;2023-08-21T04:47:26;8.90;;;4.40;;
64401;SDS011;50724;42.376;23.768;2023-08-21T04:50:27;8.00;;;4.47;;
64401;SDS011;50724;42.376;23.768;2023-08-21T04:53:27;8.18;;;4.82;;
64401;SDS011;50724;42.376;23.768;2023-08-21T04:56:29;8.20;;;4.60;;
64401;SDS011;50724;42.376;23.768;2023-08-21T04:59:29;8.73;;;4.87;;
64401;SDS011;50724;42.376;23.768;2023-08-21T05:02:30;6.60;;;4.27;;
64401;SDS011;50724;42.376;23.768;2023-08-21T05:05:30;7.13;;;4.40;;
64401;SDS011;50724;42.376;23.768;2023-08-21T05:08:31;8.02;;;4.50;;
64401;SDS011;50724;42.376;23.768;2023-08-21T05:11:31;9.65;;;4.22;;
64401;SDS011;50724;42.376;23.768;2023-08-21T05:14:31;8.40;;;4.53;;
64401;SDS011;50724;42.376;23.768;2023-08-21T05:17:32;7.30;;;4.47;;
64401;SDS011;50724;42.376;23.768;2023-08-21T05:20:32;7.80;;;4.70;;
64401;SDS011;50724;42.376;23.768;2023-08-21T05:23:33;7.40;;;4.80;;
64401;SDS011;50724;42.376;23.768;2023-08-21T05:26:35;10.97;;;4.70;;
64401;SDS011;50724;42.376;23.768;2023-08-21T05:29:36;6.57;;;4.85;;
64401;SDS011;50724;42.376;23.768;2023-08-21T05:32:36;7.73;;;4.50;;
64401;SDS011;50724;42.376;23.768;2023-08-21T05:35:37;8.63;;;4.47;;
64401;SDS011;50724;42.376;23.768;2023-08-21T05:38:37;10.45;;;4.75;;
64401;SDS011;50724;42.376;23.768;2023-08-21T05:41:38;8.63;;;4.82;;
64401;SDS011;50724;42.376;23.768;2023-08-21T05:44:38;10.98;;;4.82;;
64401;SDS011;50724;42.376;23.768;2023-08-21T05:47:39;7.65;;;4.70;;
64401;SDS011;50724;42.376;23.768;2023-08-21T05:50:39;9.15;;;4.43;;
64401;SDS011;50724;42.376;23.768;2023-08-21T05:53:40;8.95;;;4.85;;
64401;SDS011;50724;42.376;23.768;2023-08-21T05:56:41;8.43;;;4.80;;
64401;SDS011;50724;42.376;23.768;2023-08-21T05:59:45;10.40;;;4.65;;
64401;SDS011;50724;42.376;23.768;2023-08-21T06:02:46;7.88;;;4.50;;
64401;SDS011;50724;42.376;23.768;2023-08-21T06:05:47;7.72;;;4.57;;
64401;SDS011;50724;42.376;23.768;2023-08-21T06:08:47;9.18;;;5.13;;
64401;SDS011;50724;42.376;23.768;2023-08-21T06:11:48;9.65;;;5.10;;
64401;SDS011;50724;42.376;23.768;2023-08-21T06:14:56;7.82;;;5.00;;
64401;SDS011;50724;42.376;23.768;2023-08-21T06:17:58;7.60;;;5.10;;
64401;SDS011;50724;42.376;23.768;2023-08-21T06:20:59;8.38;;;5.35;;
64401;SDS011;50724;42.376;23.768;2023-08-21T06:23:59;9.18;;;4.90;;
64401;SDS011;50724;42.376;23.768;2023-08-21T06:27:00;7.97;;;4.85;;
64401;SDS011;50724;42.376;23.768;2023-08-21T06:30:00;7.43;;;4.82;;
64401;SDS011;50724;42.376;23.768;2023-08-21T06:33:01;7.68;;;4.43;;
64401;SDS011;50724;42.376;23.768;2023-08-21T06:36:01;11.38;;;4.75;;
64401;SDS011;50724;42.376;23.768;2023-08-21T06:39:02;7.38;;;4.93;;
64401;SDS011;50724;42.376;23.768;2023-08-21T06:42:03;8.90;;;5.50;;
64401;SDS011;50724;42.376;23.768;2023-08-21T06:45:13;9.07;;;4.78;;
64401;SDS011;50724;42.376;23.768;2023-08-21T06:48:14;7.50;;;5.05;;
64401;SDS011;50724;42.376;23.768;2023-08-21T06:51:14;12.20;;;4.83;;
64401;SDS011;50724;42.376;23.768;2023-08-21T06:54:15;8.88;;;6.10;;
64401;SDS011;50724;42.376;23.768;2023-08-21T06:57:16;8.48;;;5.20;;
64401;SDS011;50724;42.376;23.768;2023-08-21T07:00:16;10.57;;;4.82;;
64401;SDS011;50724;42.376;23.768;2023-08-21T07:03:17;11.25;;;5.70;;
64401;SDS011;50724;42.376;23.768;2023-08-21T07:06:18;10.00;;;5.18;;
64401;SDS011;50724;42.376;23.768;2023-08-21T07:09:18;7.55;;;5.15;;
64401;SDS011;50724;42.376;23.768;2023-08-21T07:12:18;6.82;;;4.70;;
64401;SDS011;50724;42.376;23.768;2023-08-21T07:15:19;8.52;;;5.00;;
64401;SDS011;50724;42.376;23.768;2023-08-21T07:18:19;10.13;;;5.23;;
64401;SDS011;50724;42.376;23.768;2023-08-21T07:21:20;8.90;;;5.13;;
64401;SDS011;50724;42.376;23.768;2023-08-21T07:24:20;7.82;;;4.57;;
64401;SDS011;50724;42.376;23.768;2023-08-21T07:27:20;8.70;;;5.20;;
64401;SDS011;50724;42.376;23.768;2023-08-21T07:30:21;7.13;;;4.50;;
64401;SDS011;50724;42.376;23.768;2023-08-21T07:33:22;8.90;;;4.93;;
64401;SDS011;50724;42.376;23.768;2023-08-21T07:36:23;7.63;;;4.53;;
64401;SDS011;50724;42.376;23.768;2023-08-21T07:39:24;7.22;;;4.47;;
64401;SDS011;50724;42.376;23.768;2023-08-21T07:42:24;8.17;;;4.73;;
64401;SDS011;50724;42.376;23.768;2023-08-21T07:45:25;6.75;;;4.25;;
64401;SDS011;50724;42.376;23.768;2023-08-21T07:48:25;9.88;;;4.82;;
64401;SDS011;50724;42.376;23.768;2023-08-21T07:51:26;9.07;;;4.40;;
64401;SDS011;50724;42.376;23.768;2023-08-21T07:54:26;10.23;;;4.38;;
64401;SDS011;50724;42.376;23.768;2023-08-21T07:57:27;6.90;;;4.50;;
64401;SDS011;50724;42.376;23.768;2023-08-21T08:00:30;8.70;;;4.78;;
64401;SDS011;50724;42.376;23.768;2023-08-21T08:03:31;6.20;;;4.20;;
64401;SDS011;50724;42.376;23.768;2023-08-21T08:06:31;8.23;;;4.15;;
64401;SDS011;50724;42.376;23.768;2023-08-21T08:09:32;12.07;;;4.40;;
64401;SDS011;50724;42.376;23.768;2023-08-21T08:12:33;8.07;;;5.03;;
64401;SDS011;50724;42.376;23.768;2023-08-21T08:15:33;7.20;;;4.43;;
64401;SDS011;50724;42.376;23.768;2023-08-21T08:18:35;9.90;;;4.65;;
64401;SDS011;50724;42.376;23.768;2023-08-21T08:21:35;8.65;;;4.70;;
64401;SDS011;50724;42.376;23.768;2023-08-21T08:24:36;7.05;;;4.65;;
64401;SDS011;50724;42.376;23.768;2023-08-21T08:27:37;6.75;;;3.90;;
64401;SDS011;50724;42.376;23.768;2023-08-21T08:30:37;7.97;;;4.63;;
64401;SDS011;50724;42.376;23.768;2023-08-21T08:33:38;8.57;;;3.92;;
64401;SDS011;50724;42.376;23.768;2023-08-21T08:36:38;10.27;;;4.18;;
64401;SDS011;50724;42.376;23.768;2023-08-21T08:39:41;6.63;;;3.97;;
64401;SDS011;50724;42.376;23.768;2023-08-21T08:42:42;8.40;;;4.00;;
64401;SDS011;50724;42.376;23.768;2023-08-21T08:45:43;5.82;;;4.03;;
64401;SDS011;50724;42.376;23.768;2023-08-21T08:48:47;7.78;;;3.97;;
64401;SDS011;50724;42.376;23.768;2023-08-21T08:51:49;9.10;;;4.30;;
64401;SDS011;50724;42.376;23.768;2023-08-21T08:54:51;9.35;;;4.70;;
64401;SDS011;50724;42.376;23.768;2023-08-21T08:57:55;9.02;;;4.50;;
64401;SDS011;50724;42.376;23.768;2023-08-21T09:00:56;7.70;;;3.70;;
64401;SDS011;50724;42.376;23.768;2023-08-21T09:03:56;7.20;;;4.10;;
64401;SDS011;50724;42.376;23.768;2023-08-21T09:07:07;9.13;;;4.45;;
64401;SDS011;50724;42.376;23.768;2023-08-21T09:10:13;9.35;;;3.92;;
64401;SDS011;50724;42.376;23.768;2023-08-21T09:13:18;6.93;;;4.13;;
64401;SDS011;50724;42.376;23.768;2023-08-21T09:16:19;12.38;;;4.45;;
64401;SDS011;50724;42.376;23.768;2023-08-21T09:19:21;6.82;;;4.38;;
64401;SDS011;50724;42.376;23.768;2023-08-21T09:22:22;9.57;;;4.65;;
64401;SDS011;50724;42.376;23.768;2023-08-21T09:25:23;6.35;;;4.35;;
64401;SDS011;50724;42.376;23.768;2023-08-21T09:28:25;5.50;;;4.03;;
64401;SDS011;50724;42.376;23.768;2023-08-21T09:31:29;8.00;;;4.07;;
64401;SDS011;50724;42.376;23.768;2023-08-21T09:34:34;9.38;;;3.95;;
64401;SDS011;50724;42.376;23.768;2023-08-21T09:37:38;6.22;;;4.57;;
64401;SDS011;50724;42.376;23.768;2023-08-21T09:40:39;9.50;;;4.53;;
64401;SDS011;50724;42.376;23.768;2023-08-21T09:43:43;6.82;;;4.28;;
64401;SDS011;50724;42.376;23.768;2023-08-21T09:46:47;7.78;;;4.55;;
64401;SDS011;50724;42.376;23.768;2023-08-21T09:49:49;8.32;;;4.47;;
64401;SDS011;50724;42.376;23.768;2023-08-21T09:52:50;7.65;;;4.32;;
64401;SDS011;50724;42.376;23.768;2023-08-21T09:55:53;11.50;;;4.72;;
64401;SDS011;50724;42.376;23.768;2023-08-21T09:58:55;9.95;;;4.13;;
64401;SDS011;50724;42.376;23.768;2023-08-21T10:01:56;8.95;;;4.60;;
64401;SDS011;50724;42.376;23.768;2023-08-21T10:04:59;8.35;;;4.35;;
64401;SDS011;50724;42.376;23.768;2023-08-21T10:08:01;8.20;;;4.07;;
64401;SDS011;50724;42.376;23.768;2023-08-21T10:11:04;8.73;;;4.10;;
64401;SDS011;50724;42.376;23.768;2023-08-21T10:14:05;6.70;;;4.47;;
64401;SDS011;50724;42.376;23.768;2023-08-21T10:17:08;7.22;;;4.00;;
64401;SDS011;50724;42.376;23.768;2023-08-21T10:20:09;8.43;;;4.32;;
64401;SDS011;50724;42.376;23.768;2023-08-21T10:23:09;6.78;;;3.97;;
64401;SDS011;50724;42.376;23.768;2023-08-21T10:26:24;10.73;;;4.88;;
64401;SDS011;50724;42.376;23.768;2023-08-21T10:29:26;9.68;;;4.45;;
64401;SDS011;50724;42.376;23.768;2023-08-21T10:32:27;9.77;;;4.60;;
64401;SDS011;50724;42.376;23.768;2023-08-21T10:35:30;6.85;;;4.53;;
64401;SDS011;50724;42.376;23.768;2023-08-21T10:38:31;8.10;;;4.35;;
64401;SDS011;50724;42.376;23.768;2023-08-21T10:41:31;7.33;;;4.33;;
64401;SDS011;50724;42.376;23.768;2023-08-21T10:47:45;7.60;;;4.53;;
64401;SDS011;50724;42.376;23.768;2023-08-21T10:50:48;10.40;;;4.78;;
64401;SDS011;50724;42.376;23.768;2023-08-21T10:53:49;9.40;;;4.75;;
64401;SDS011;50724;42.376;23.768;2023-08-21T10:56:49;9.15;;;4.78;;
64401;SDS011;50724;42.376;23.768;2023-08-21T10:59:50;10.50;;;4.60;;
64401;SDS011;50724;42.376;23.768;2023-08-21T11:02:51;14.43;;;6.28;;
64401;SDS011;50724;42.376;23.768;2023-08-21T11:06:01;11.65;;;6.20;;
64401;SDS011;50724;42.376;23.768;2023-08-21T11:09:03;10.00;;;6.22;;
64401;SDS011;50724;42.376;23.768;2023-08-21T11:12:05;14.27;;;6.78;;
64401;SDS011;50724;42.376;23.768;2023-08-21T11:15:09;13.50;;;7.05;;
64401;SDS011;50724;42.376;23.768;2023-08-21T11:21:11;8.13;;;5.07;;
64401;SDS011;50724;42.376;23.768;2023-08-21T11:24:12;11.13;;;5.32;;
64401;SDS011;50724;42.376;23.768;2023-08-21T11:27:14;9.20;;;4.82;;
64401;SDS011;50724;42.376;23.768;2023-08-21T11:30:16;9.23;;;5.07;;
64401;SDS011;50724;42.376;23.768;2023-08-21T11:33:17;7.80;;;4.10;;
64401;SDS011;50724;42.376;23.768;2023-08-21T11:36:18;9.90;;;4.53;;
64401;SDS011;50724;42.376;23.768;2023-08-21T11:39:19;5.93;;;4.05;;
64401;SDS011;50724;42.376;23.768;2023-08-21T11:42:20;8.48;;;4.60;;
64401;SDS011;50724;42.376;23.768;2023-08-21T11:45:23;6.15;;;4.25;;
64401;SDS011;50724;42.376;23.768;2023-08-21T11:48:23;6.20;;;4.07;;
64401;SDS011;50724;42.376;23.768;2023-08-21T11:51:24;11.40;;;4.80;;
64401;SDS011;50724;42.376;23.768;2023-08-21T11:54:24;8.52;;;4.40;;
64401;SDS011;50724;42.376;23.768;2023-08-21T11:57:25;7.30;;;4.45;;
64401;SDS011;50724;42.376;23.768;2023-08-21T12:00:29;8.68;;;4.70;;
64401;SDS011;50724;42.376;23.768;2023-08-21T12:03:30;9.68;;;5.20;;
64401;SDS011;50724;42.376;23.768;2023-08-21T12:06:35;9.65;;;5.15;;
64401;SDS011;50724;42.376;23.768;2023-08-21T12:09:46;9.40;;;5.28;;
64401;SDS011;50724;42.376;23.768;2023-08-21T12:12:50;8.68;;;5.15;;
64401;SDS011;50724;42.376;23.768;2023-08-21T12:15:59;8.20;;;5.35;;
64401;SDS011;50724;42.376;23.768;2023-08-21T12:18:59;9.18;;;4.45;;
64401;SDS011;50724;42.376;23.768;2023-08-21T12:22:00;8.65;;;4.90;;
64401;SDS011;50724;42.376;23.768;2023-08-21T12:25:00;8.82;;;4.72;;
64401;SDS011;50724;42.376;23.768;2023-08-21T12:28:01;7.33;;;4.70;;
64401;SDS011;50724;42.376;23.768;2023-08-21T12:31:01;8.05;;;5.03;;
64401;SDS011;50724;42.376;23.768;2023-08-21T12:34:02;7.82;;;4.65;;
64401;SDS011;50724;42.376;23.768;2023-08-21T12:37:03;8.20;;;4.47;;
64401;SDS011;50724;42.376;23.768;2023-08-21T12:40:14;8.40;;;4.35;;
64401;SDS011;50724;42.376;23.768;2023-08-21T12:43:23;9.52;;;5.03;;
64401;SDS011;50724;42.376;23.768;2023-08-21T12:46:23;7.37;;;4.47;;
64401;SDS011;50724;42.376;23.768;2023-08-21T12:49:33;9.90;;;4.30;;
64401;SDS011;50724;42.376;23.768;2023-08-21T12:52:35;7.50;;;4.40;;
64401;SDS011;50724;42.376;23.768;2023-08-21T12:55:35;10.25;;;4.63;;
64401;SDS011;50724;42.376;23.768;2023-08-21T12:58:36;10.27;;;5.18;;
64401;SDS011;50724;42.376;23.768;2023-08-21T13:01:36;8.52;;;4.90;;
64401;SDS011;50724;42.376;23.768;2023-08-21T13:04:37;6.63;;;4.25;;
64401;SDS011;50724;42.376;23.768;2023-08-21T13:07:38;9.05;;;4.88;;
64401;SDS011;50724;42.376;23.768;2023-08-21T13:10:38;9.52;;;4.97;;
64401;SDS011;50724;42.376;23.768;2023-08-21T13:13:39;9.00;;;4.65;;
64401;SDS011;50724;42.376;23.768;2023-08-21T13:16:39;7.70;;;4.93;;
64401;SDS011;50724;42.376;23.768;2023-08-21T13:19:40;6.78;;;4.63;;
64401;SDS011;50724;42.376;23.768;2023-08-21T13:22:58;8.15;;;4.68;;
64401;SDS011;50724;42.376;23.768;2023-08-21T13:25:59;6.55;;;4.50;;
64401;SDS011;50724;42.376;23.768;2023-08-21T13:28:59;11.05;;;4.63;;
64401;SDS011;50724;42.376;23.768;2023-08-21T13:31:59;7.37;;;4.57;;
64401;SDS011;50724;42.376;23.768;2023-08-21T13:35:00;9.65;;;4.55;;
64401;SDS011;50724;42.376;23.768;2023-08-21T13:38:00;8.27;;;4.32;;
64401;SDS011;50724;42.376;23.768;2023-08-21T13:41:01;6.47;;;4.47;;
64401;SDS011;50724;42.376;23.768;2023-08-21T13:44:02;7.57;;;4.32;;
64401;SDS011;50724;42.376;23.768;2023-08-21T13:47:03;7.28;;;4.55;;
64401;SDS011;50724;42.376;23.768;2023-08-21T13:50:04;7.93;;;4.45;;
64401;SDS011;50724;42.376;23.768;2023-08-21T13:53:05;7.28;;;4.40;;
64401;SDS011;50724;42.376;23.768;2023-08-21T13:56:06;7.38;;;4.40;;
64401;SDS011;50724;42.376;23.768;2023-08-21T13:59:06;7.80;;;4.70;;
64401;SDS011;50724;42.376;23.768;2023-08-21T14:02:07;7.45;;;4.50;;
64401;SDS011;50724;42.376;23.768;2023-08-21T14:05:07;7.13;;;3.90;;
64401;SDS011;50724;42.376;23.768;2023-08-21T14:08:08;7.68;;;4.60;;
64401;SDS011;50724;42.376;23.768;2023-08-21T14:11:09;6.05;;;4.18;;
64401;SDS011;50724;42.376;23.768;2023-08-21T14:14:10;7.65;;;4.35;;
64401;SDS011;50724;42.376;23.768;2023-08-21T14:17:10;8.77;;;4.77;;
64401;SDS011;50724;42.376;23.768;2023-08-21T14:20:11;6.50;;;4.43;;
64401;SDS011;50724;42.376;23.768;2023-08-21T14:23:11;6.70;;;4.35;;
64401;SDS011;50724;42.376;23.768;2023-08-21T14:26:12;6.72;;;4.53;;
64401;SDS011;50724;42.376;23.768;2023-08-21T14:29:12;7.88;;;4.63;;
64401;SDS011;50724;42.376;23.768;2023-08-21T14:32:16;8.20;;;4.40;;
64401;SDS011;50724;42.376;23.768;2023-08-21T14:35:26;6.65;;;4.03;;
64401;SDS011;50724;42.376;23.768;2023-08-21T14:38:32;7.75;;;4.90;;
64401;SDS011;50724;42.376;23.768;2023-08-21T14:41:33;7.25;;;4.45;;
64401;SDS011;50724;42.376;23.768;2023-08-21T14:44:33;5.90;;;4.53;;
64401;SDS011;50724;42.376;23.768;2023-08-21T14:47:34;6.40;;;4.22;;
64401;SDS011;50724;42.376;23.768;2023-08-21T14:50:36;6.78;;;4.57;;
64401;SDS011;50724;42.376;23.768;2023-08-21T14:53:36;7.17;;;4.50;;
64401;SDS011;50724;42.376;23.768;2023-08-21T14:56:36;6.80;;;4.57;;
64401;SDS011;50724;42.376;23.768;2023-08-21T14:59:37;7.95;;;4.25;;
64401;SDS011;50724;42.376;23.768;2023-08-21T15:02:37;8.03;;;4.40;;
64401;SDS011;50724;42.376;23.768;2023-08-21T15:05:38;7.75;;;4.20;;
64401;SDS011;50724;42.376;23.768;2023-08-21T15:08:38;6.35;;;4.47;;
64401;SDS011;50724;42.376;23.768;2023-08-21T15:11:39;6.63;;;3.90;;
64401;SDS011;50724;42.376;23.768;2023-08-21T15:14:40;6.93;;;4.68;;
64401;SDS011;50724;42.376;23.768;2023-08-21T15:17:40;8.27;;;4.55;;
64401;SDS011;50724;42.376;23.768;2023-08-21T15:20:41;6.75;;;4.30;;
64401;SDS011;50724;42.376;23.768;2023-08-21T15:23:41;6.18;;;4.53;;
64401;SDS011;50724;42.376;23.768;2023-08-21T15:26:42;6.97;;;4.85;;
64401;SDS011;50724;42.376;23.768;2023-08-21T15:29:42;7.07;;;4.40;;
64401;SDS011;50724;42.376;23.768;2023-08-21T15:32:43;6.40;;;4.70;;
64401;SDS011;50724;42.376;23.768;2023-08-21T15:35:44;6.63;;;4.70;;
64401;SDS011;50724;42.376;23.768;2023-08-21T15:38:45;6.22;;;4.60;;
64401;SDS011;50724;42.376;23.768;2023-08-21T15:41:45;6.57;;;4.47;;
64401;SDS011;50724;42.376;23.768;2023-08-21T15:44:46;6.45;;;4.57;;
64401;SDS011;50724;42.376;23.768;2023-08-21T15:47:46;6.20;;;4.72;;
64401;SDS011;50724;42.376;23.768;2023-08-21T15:50:48;9.07;;;4.68;;
64401;SDS011;50724;42.376;23.768;2023-08-21T15:53:48;7.82;;;4.50;;
64401;SDS011;50724;42.376;23.768;2023-08-21T15:56:49;7.15;;;4.95;;
64401;SDS011;50724;42.376;23.768;2023-08-21T15:59:49;7.10;;;4.93;;
64401;SDS011;50724;42.376;23.768;2023-08-21T16:02:50;7.38;;;4.68;;
64401;SDS011;50724;42.376;23.768;2023-08-21T16:05:50;10.03;;;5.10;;
64401;SDS011;50724;42.376;23.768;2023-08-21T16:08:51;8.27;;;5.17;;
64401;SDS011;50724;42.376;23.768;2023-08-21T16:11:51;9.80;;;5.40;;
64401;SDS011;50724;42.376;23.768;2023-08-21T16:14:52;8.30;;;4.95;;
64401;SDS011;50724;42.376;23.768;2023-08-21T16:17:52;5.97;;;3.97;;
64401;SDS011;50724;42.376;23.768;2023-08-21T16:20:52;7.07;;;4.70;;
64401;SDS011;50724;42.376;23.768;2023-08-21T16:23:53;7.20;;;4.43;;
64401;SDS011;50724;42.376;23.768;2023-08-21T16:26:53;8.25;;;5.07;;
64401;SDS011;50724;42.376;23.768;2023-08-21T16:29:54;7.90;;;4.77;;
64401;SDS011;50724;42.376;23.768;2023-08-21T16:32:54;7.68;;;4.82;;
64401;SDS011;50724;42.376;23.768;2023-08-21T16:35:55;7.13;;;4.40;;
64401;SDS011;50724;42.376;23.768;2023-08-21T16:38:56;9.25;;;5.03;;
64401;SDS011;50724;42.376;23.768;2023-08-21T16:41:57;6.87;;;3.87;;
64401;SDS011;50724;42.376;23.768;2023-08-21T16:44:57;8.23;;;4.63;;
64401;SDS011;50724;42.376;23.768;2023-08-21T16:47:58;7.97;;;4.43;;
64401;SDS011;50724;42.376;23.768;2023-08-21T16:50:59;8.25;;;4.90;;
64401;SDS011;50724;42.376;23.768;2023-08-21T16:53:59;7.90;;;4.78;;
64401;SDS011;50724;42.376;23.768;2023-08-21T16:57:00;6.40;;;4.30;;
64401;SDS011;50724;42.376;23.768;2023-08-21T17:00:00;11.33;;;4.83;;
64401;SDS011;50724;42.376;23.768;2023-08-21T17:03:01;7.10;;;4.97;;
64401;SDS011;50724;42.376;23.768;2023-08-21T17:06:01;8.48;;;4.93;;
64401;SDS011;50724;42.376;23.768;2023-08-21T17:09:02;8.02;;;4.88;;
64401;SDS011;50724;42.376;23.768;2023-08-21T17:12:04;6.93;;;4.97;;
64401;SDS011;50724;42.376;23.768;2023-08-21T17:15:06;7.53;;;4.78;;
64401;SDS011;50724;42.376;23.768;2023-08-21T17:18:07;8.25;;;5.03;;
64401;SDS011;50724;42.376;23.768;2023-08-21T17:21:07;9.52;;;5.35;;
64401;SDS011;50724;42.376;23.768;2023-08-21T17:24:08;7.03;;;5.00;;
64401;SDS011;50724;42.376;23.768;2023-08-21T17:27:08;10.75;;;5.20;;
64401;SDS011;50724;42.376;23.768;2023-08-21T17:30:09;8.10;;;5.25;;
64401;SDS011;50724;42.376;23.768;2023-08-21T17:33:10;6.88;;;4.72;;
64401;SDS011;50724;42.376;23.768;2023-08-21T17:36:10;10.93;;;5.20;;
64401;SDS011;50724;42.376;23.768;2023-08-21T17:39:11;7.85;;;4.97;;
64401;SDS011;50724;42.376;23.768;2023-08-21T17:42:11;11.33;;;5.30;;
64401;SDS011;50724;42.376;23.768;2023-08-21T17:45:12;8.40;;;5.50;;
64401;SDS011;50724;42.376;23.768;2023-08-21T17:48:12;7.78;;;5.40;;
64401;SDS011;50724;42.376;23.768;2023-08-21T17:51:13;7.85;;;5.55;;
64401;SDS011;50724;42.376;23.768;2023-08-21T17:54:15;8.75;;;5.30;;
64401;SDS011;50724;42.376;23.768;2023-08-21T17:57:16;7.75;;;4.65;;
64401;SDS011;50724;42.376;23.768;2023-08-21T18:00:16;9.43;;;5.43;;
64401;SDS011;50724;42.376;23.768;2023-08-21T18:03:17;9.73;;;5.22;;